D93 weather

Airtrek Airport
Waterloo, New York, United States

Public forecast

Using degrees Fahrenheit for public forecast. Weather courtesy of forecast.io.

METAR (pilot weather report)

Closest report is Penn Yan Airport, 15.6 nm (28.9 km) SW. Retrieved 2019/05/21 07:53 UTC (26 minutes ago):

KPEO 210753Z AUTO 29006G15KT 10SM FEW022 07/03 A3001 RMK AO2 SLP163 T00720033

TAF (pilot weather forecast)

Closest forecast is Ithaca Tompkins Regional Airport, 27.6 nm (51.2 km) SE. Retrieved 2019/05/21 06:33 UTC (2 hours ago):

TAF KITH 210530Z 2106/2206 31012KT P6SM OVC025 FM210900 32015KT P6SM SKC FM220000 33004KT P6SM SKC